Time;durP1;ratioP1;P1;durP2;ratioP2;P2;SDS_P1;SDS_P2;PMS_P1;PMS_P2;Temp;Humidity;BMP_temperature;BMP_pressure;BME280_temperature;BME280_humidity;BME280_pressure;Samples;Min_cycle;Max_cycle;Signal;HPM_P1;HPM_P2
2023/12/16 00:00:15;;;;;;;14.00;7.37;;;;;;;5.86;100.00;147653.28;4993196;28;20225;-59
2023/12/16 00:02:42;;;;;;;12.53;7.87;;;;;;;5.80;100.00;147637.19;5028109;28;20239;-58
2023/12/16 00:05:09;;;;;;;13.67;7.63;;;;;;;5.79;100.00;147634.69;5008180;28;20224;-58
2023/12/16 00:07:37;;;;;;;14.43;7.70;;;;;;;5.81;100.00;147639.66;5011219;28;20236;-58
2023/12/16 00:10:06;;;;;;;12.37;7.30;;;;;;;5.81;100.00;147639.66;5009878;28;20593;-57
2023/12/16 00:12:32;;;;;;;12.83;7.80;;;;;;;5.82;100.00;147643.41;5009947;28;20264;-58
2023/12/16 00:14:59;;;;;;;13.77;7.93;;;;;;;5.83;100.00;147644.63;5013284;28;20240;-57
2023/12/16 00:17:26;;;;;;;17.67;8.43;;;;;;;5.84;100.00;147647.09;5007670;28;20868;-58
2023/12/16 00:19:52;;;;;;;17.73;8.20;;;;;;;5.84;100.00;147648.31;5029612;28;20224;-57
2023/12/16 00:22:19;;;;;;;14.97;7.50;;;;;;;5.87;100.00;147654.56;5009674;28;20244;-58
2023/12/16 00:24:47;;;;;;;16.63;8.27;;;;;;;5.85;100.00;147650.81;5008455;28;20227;-58
2023/12/16 00:27:13;;;;;;;12.80;8.17;;;;;;;5.85;100.00;147649.59;5013110;28;20221;-58
2023/12/16 00:29:40;;;;;;;15.77;7.63;;;;;;;5.83;100.00;147645.84;5012262;28;20228;-58
2023/12/16 00:32:07;;;;;;;16.47;7.87;;;;;;;5.84;100.00;147647.09;5009064;28;20251;-59
2023/12/16 00:34:34;;;;;;;12.80;8.40;;;;;;;5.82;100.00;147642.16;5010919;28;20307;-57
2023/12/16 00:37:00;;;;;;;12.63;7.30;;;;;;;5.82;100.00;147642.16;5010411;28;20239;-58
2023/12/16 00:39:27;;;;;;;10.70;7.00;;;;;;;5.83;100.00;147644.63;5006104;28;20243;-58
2023/12/16 00:41:55;;;;;;;14.53;8.00;;;;;;;5.83;100.00;147645.84;5004905;28;20718;-58
2023/12/16 00:44:22;;;;;;;13.10;8.30;;;;;;;5.86;100.00;147652.06;4999871;28;20309;-58
2023/12/16 00:46:48;;;;;;;11.50;7.20;;;;;;;5.86;100.00;147652.06;5013407;28;20724;-58
2023/12/16 00:49:15;;;;;;;13.30;8.10;;;;;;;5.89;100.00;147660.75;5006206;28;20216;-58
2023/12/16 00:51:42;;;;;;;15.47;7.97;;;;;;;5.86;100.00;147652.06;5009952;28;20603;-58
2023/12/16 00:54:09;;;;;;;14.17;7.70;;;;;;;5.89;100.00;147660.75;5006056;28;20706;-58
2023/12/16 00:56:35;;;;;;;13.80;8.23;;;;;;;5.87;100.00;147654.56;5012301;28;20635;-58
2023/12/16 00:59:03;;;;;;;11.43;7.43;;;;;;;5.90;100.00;147663.22;5006341;28;20246;-58
2023/12/16 01:01:30;;;;;;;13.67;8.50;;;;;;;5.88;100.00;147658.25;5013306;28;20259;-58
2023/12/16 01:03:56;;;;;;;16.13;8.47;;;;;;;5.88;100.00;147657.03;5012774;28;20236;-58
2023/12/16 01:06:23;;;;;;;14.03;9.20;;;;;;;5.89;100.00;147659.53;5004850;28;20315;-58
2023/12/16 01:08:50;;;;;;;13.67;8.60;;;;;;;5.88;100.00;147657.03;5011726;28;20235;-57
2023/12/16 01:11:16;;;;;;;14.80;8.63;;;;;;;5.96;100.00;147676.91;5010656;28;20227;-58
2023/12/16 01:13:43;;;;;;;14.33;8.00;;;;;;;5.89;100.00;147659.53;5014840;28;20691;-58
2023/12/16 01:16:11;;;;;;;15.97;8.60;;;;;;;5.87;100.00;147655.78;5007853;28;20216;-58
2023/12/16 01:18:37;;;;;;;15.77;8.43;;;;;;;5.89;100.00;147660.75;5011933;28;20227;-58
2023/12/16 01:21:06;;;;;;;14.93;9.20;;;;;;;5.94;100.00;147670.69;5008526;28;20584;-58
2023/12/16 01:23:33;;;;;;;13.27;8.50;;;;;;;5.91;100.00;147664.50;5012890;28;20236;-58
2023/12/16 01:25:59;;;;;;;12.10;7.20;;;;;;;5.95;100.00;147674.44;5015587;28;20322;-58
2023/12/16 01:28:26;;;;;;;15.40;8.43;;;;;;;5.96;100.00;147675.63;5011161;28;20232;-58
2023/12/16 01:30:53;;;;;;;11.00;8.17;;;;;;;5.95;100.00;147674.44;5014678;28;20934;-58
2023/12/16 01:33:21;;;;;;;13.53;8.10;;;;;;;5.93;100.00;147668.19;5007264;28;20239;-58
2023/12/16 01:35:47;;;;;;;14.97;8.27;;;;;;;5.92;100.00;147666.97;5009755;28;20721;-58
2023/12/16 01:38:14;;;;;;;16.93;8.53;;;;;;;5.89;100.00;147660.75;5008362;28;20224;-59
2023/12/16 01:40:41;;;;;;;12.40;7.53;;;;;;;5.84;100.00;147647.09;5014082;28;20231;-58
2023/12/16 01:43:08;;;;;;;11.60;7.73;;;;;;;5.81;100.00;147640.94;5008217;28;20240;-57
2023/12/16 01:45:35;;;;;;;12.97;7.57;;;;;;;5.82;100.00;147643.41;5009766;28;20270;-58
2023/12/16 01:48:02;;;;;;;12.60;8.50;;;;;;;5.80;100.00;147638.44;5008347;28;20231;-58
2023/12/16 01:50:31;;;;;;;13.97;8.13;;;;;;;5.81;100.00;147640.94;4875220;28;20246;-58
2023/12/16 01:52:58;;;;;;;17.23;8.67;;;;;;;5.82;100.00;147643.41;4977048;28;20634;-58
2023/12/16 01:58:04;;;;;;;16.07;9.70;;;;;;;5.81;100.00;147639.66;5089908;23;20235;-60
2023/12/16 02:00:32;;;;;;;13.57;8.60;;;;;;;5.82;100.00;147642.16;5002561;28;20286;-57
2023/12/16 02:03:24;;;;;;;12.87;8.00;;;;;;;5.83;100.00;147644.63;4950356;28;20240;-57
2023/12/16 02:05:52;;;;;;;12.23;7.77;;;;;;;5.85;100.00;147649.59;5013242;28;20284;-57
2023/12/16 02:08:19;;;;;;;14.47;8.60;;;;;;;5.87;100.00;147654.56;4975239;28;20220;-58
2023/12/16 02:10:46;;;;;;;14.60;8.20;;;;;;;5.90;100.00;147662.00;4996120;28;20235;-57
2023/12/16 02:13:12;;;;;;;12.43;8.10;;;;;;;5.86;100.00;147652.06;5002185;28;20224;-57
2023/12/16 02:15:39;;;;;;;15.57;7.60;;;;;;;5.86;100.00;147653.28;5004026;28;20232;-58
2023/12/16 02:18:06;;;;;;;11.87;7.20;;;;;;;5.89;100.00;147659.53;5002151;28;20734;-57
2023/12/16 02:20:32;;;;;;;15.93;7.93;;;;;;;5.85;100.00;147649.59;5004546;28;20232;-57
2023/12/16 02:23:01;;;;;;;13.43;7.27;;;;;;;5.82;100.00;147642.16;5003996;28;20209;-58
2023/12/16 02:25:29;;;;;;;13.17;7.97;;;;;;;5.79;100.00;147634.69;4994889;28;20248;-58
2023/12/16 02:27:56;;;;;;;11.10;7.87;;;;;;;5.79;100.00;147634.69;5004224;28;20212;-57
2023/12/16 02:30:24;;;;;;;13.53;7.07;;;;;;;5.81;100.00;147640.94;5001436;28;20237;-57
2023/12/16 02:32:52;;;;;;;12.17;7.47;;;;;;;5.75;100.00;147627.25;5004412;28;20259;-57
2023/12/16 02:35:19;;;;;;;11.97;7.33;;;;;;;5.73;100.00;147622.28;5001535;28;20228;-57
2023/12/16 02:37:45;;;;;;;10.97;6.83;;;;;;;5.75;100.00;147627.25;5002862;28;20229;-59
2023/12/16 02:40:13;;;;;;;12.87;7.33;;;;;;;5.78;100.00;147632.22;5001473;28;20714;-57
2023/12/16 02:42:41;;;;;;;16.00;7.37;;;;;;;5.76;100.00;147628.50;5004449;28;20296;-58
2023/12/16 02:45:09;;;;;;;11.90;7.43;;;;;;;5.72;100.00;147618.56;4999731;28;20723;-57
2023/12/16 02:47:35;;;;;;;11.40;7.67;;;;;;;5.74;100.00;147623.53;4999077;28;20241;-58
2023/12/16 02:50:03;;;;;;;13.23;7.63;;;;;;;5.75;100.00;147627.25;5006989;28;20827;-58
2023/12/16 02:52:30;;;;;;;15.30;7.97;;;;;;;5.75;100.00;147627.25;5006361;28;20228;-57
2023/12/16 02:54:57;;;;;;;15.10;7.47;;;;;;;5.78;100.00;147632.22;5008317;28;20224;-58
2023/12/16 02:57:23;;;;;;;16.20;8.97;;;;;;;5.78;100.00;147632.22;5004325;28;20979;-57
2023/12/16 02:59:52;;;;;;;17.63;9.10;;;;;;;5.80;100.00;147638.44;5008119;28;20833;-58
2023/12/16 03:02:18;;;;;;;15.30;8.73;;;;;;;5.82;100.00;147643.41;5005562;28;20599;-58
2023/12/16 03:04:46;;;;;;;19.10;9.47;;;;;;;5.78;100.00;147632.22;5007565;28;20243;-58
2023/12/16 03:07:13;;;;;;;13.90;8.77;;;;;;;5.80;100.00;147638.44;5004323;28;20232;-58
2023/12/16 03:09:39;;;;;;;14.50;8.57;;;;;;;5.78;100.00;147633.47;5007231;28;20246;-57
2023/12/16 03:12:06;;;;;;;16.00;8.70;;;;;;;5.81;100.00;147640.94;5005027;28;20703;-57
2023/12/16 03:14:34;;;;;;;17.70;8.53;;;;;;;5.82;100.00;147642.16;5007805;28;20815;-57
2023/12/16 03:17:02;;;;;;;14.03;8.80;;;;;;;5.82;100.00;147642.16;5007573;28;20232;-58
2023/12/16 03:19:30;;;;;;;17.90;9.13;;;;;;;5.81;100.00;147639.66;5005056;28;20240;-58
2023/12/16 03:21:57;;;;;;;18.43;9.50;;;;;;;5.81;100.00;147639.66;4997669;28;20680;-58
2023/12/16 03:24:23;;;;;;;17.63;9.77;;;;;;;5.76;100.00;147629.72;5003022;28;20243;-58
2023/12/16 03:26:50;;;;;;;12.43;7.93;;;;;;;5.82;100.00;147642.16;5006756;28;20232;-58
2023/12/16 03:29:17;;;;;;;20.00;9.03;;;;;;;5.79;100.00;147634.69;4997080;28;20217;-58
2023/12/16 03:31:43;;;;;;;19.70;9.07;;;;;;;5.78;100.00;147633.47;5006765;28;20278;-58
2023/12/16 03:34:11;;;;;;;13.90;9.90;;;;;;;5.78;100.00;147633.47;5004541;28;20221;-57
2023/12/16 03:36:38;;;;;;;17.30;9.30;;;;;;;5.79;100.00;147635.97;5005214;28;20232;-58
2023/12/16 03:39:05;;;;;;;16.33;9.43;;;;;;;5.79;100.00;147634.69;5004281;28;20215;-58
2023/12/16 03:41:31;;;;;;;17.13;9.47;;;;;;;5.78;100.00;147632.22;5006427;28;20259;-58
2023/12/16 03:43:58;;;;;;;14.43;9.17;;;;;;;5.72;100.00;147618.56;5005759;28;20798;-58
2023/12/16 03:46:24;;;;;;;14.97;8.83;;;;;;;5.70;100.00;147614.84;5003874;28;20328;-58
2023/12/16 03:48:52;;;;;;;16.43;8.50;;;;;;;5.63;100.00;147596.22;5006078;28;20587;-58
2023/12/16 03:51:21;;;;;;;15.57;9.20;;;;;;;5.57;100.00;147582.56;5004338;28;20591;-58
2023/12/16 03:53:47;;;;;;;18.20;10.50;;;;;;;5.53;100.00;147573.88;5007087;28;20315;-58
2023/12/16 03:56:14;;;;;;;15.10;10.07;;;;;;;5.50;100.00;147565.19;5003597;28;20606;-57
2023/12/16 03:58:40;;;;;;;16.60;10.10;;;;;;;5.50;100.00;147565.19;5006073;28;20244;-57
2023/12/16 04:01:13;;;;;;;18.70;9.50;;;;;;;5.50;100.00;147566.44;5003539;28;20232;-57
2023/12/16 04:03:40;;;;;;;14.83;9.53;;;;;;;5.52;100.00;147570.13;5005197;28;20305;-57
2023/12/16 04:06:10;;;;;;;17.13;10.20;;;;;;;5.54;100.00;147576.38;5004182;28;20268;-57
2023/12/16 04:08:38;;;;;;;21.77;11.20;;;;;;;5.55;100.00;147578.84;5006381;28;20232;-57
2023/12/16 04:11:05;;;;;;;21.67;11.07;;;;;;;5.57;100.00;147583.81;5001731;28;20205;-57
2023/12/16 04:13:32;;;;;;;20.40;10.77;;;;;;;5.58;100.00;147586.31;5006502;28;20717;-58
2023/12/16 04:15:58;;;;;;;17.47;10.47;;;;;;;5.60;100.00;147591.28;4996022;28;20220;-58
2023/12/16 04:18:25;;;;;;;18.43;11.07;;;;;;;5.61;100.00;147592.47;5003999;28;20232;-58
2023/12/16 04:20:52;;;;;;;18.30;11.07;;;;;;;5.65;100.00;147602.41;5006540;28;20212;-57
2023/12/16 04:23:18;;;;;;;21.70;11.00;;;;;;;5.63;100.00;147597.44;5002890;28;20239;-58
2023/12/16 04:25:46;;;;;;;19.17;10.83;;;;;;;5.59;100.00;147587.53;5014029;28;20592;-57
2023/12/16 04:28:13;;;;;;;16.90;10.93;;;;;;;5.57;100.00;147583.81;5002747;28;20229;-58
2023/12/16 04:30:40;;;;;;;14.73;10.13;;;;;;;5.55;100.00;147578.84;5195981;23;21284;-59
2023/12/16 04:33:06;;;;;;;20.97;10.97;;;;;;;5.52;100.00;147571.41;5018222;28;20298;-58
2023/12/16 04:35:33;;;;;;;17.30;10.60;;;;;;;5.39;100.00;147540.34;5025498;28;20235;-58
2023/12/16 04:37:59;;;;;;;18.27;11.63;;;;;;;5.28;100.00;147513.09;5026000;28;20224;-58
2023/12/16 04:40:27;;;;;;;18.03;10.70;;;;;;;5.10;100.00;147469.63;5020760;28;20224;-58
2023/12/16 04:42:55;;;;;;;22.63;10.87;;;;;;;4.94;100.00;147431.19;5023927;28;20279;-57
2023/12/16 04:45:21;;;;;;;20.30;10.77;;;;;;;4.72;100.00;147379.09;5022750;28;20231;-57
2023/12/16 04:47:48;;;;;;;19.20;11.27;;;;;;;4.55;100.00;147339.41;5024277;28;20251;-58
2023/12/16 04:50:15;;;;;;;20.33;11.03;;;;;;;4.42;100.00;147308.41;5022111;28;20228;-58
2023/12/16 04:52:41;;;;;;;21.80;10.63;;;;;;;4.23;100.00;147261.28;5019744;28;20236;-58
2023/12/16 04:55:08;;;;;;;21.50;11.07;;;;;;;4.09;100.00;147229.03;5022253;28;20237;-58
2023/12/16 04:57:35;;;;;;;17.70;10.83;;;;;;;3.94;100.00;147193.09;5022587;28;20322;-57
2023/12/16 05:00:04;;;;;;;22.07;11.20;;;;;;;3.79;100.00;147157.13;5024267;28;20228;-58
2023/12/16 05:02:31;;;;;;;17.90;10.63;;;;;;;3.71;100.00;147136.06;5022091;28;20270;-57
2023/12/16 05:04:57;;;;;;;23.50;10.87;;;;;;;3.58;100.00;147106.31;5024026;28;20226;-58
2023/12/16 05:07:24;;;;;;;21.63;10.27;;;;;;;3.51;100.00;147088.97;5020179;28;20252;-58
2023/12/16 05:09:51;;;;;;;22.40;10.90;;;;;;;3.50;100.00;147087.75;5023873;28;20211;-58
2023/12/16 05:12:17;;;;;;;20.83;10.50;;;;;;;3.47;100.00;147079.06;5013097;28;20224;-58
2023/12/16 05:14:44;;;;;;;17.00;9.67;;;;;;;3.46;100.00;147076.56;5017239;28;20228;-58
2023/12/16 05:17:12;;;;;;;18.97;10.80;;;;;;;3.45;100.00;147074.09;5020908;28;20690;-58
2023/12/16 05:19:38;;;;;;;20.03;10.50;;;;;;;3.49;100.00;147084.00;5022782;28;20235;-57
2023/12/16 05:22:05;;;;;;;20.93;11.87;;;;;;;3.57;100.00;147103.84;5019426;28;20312;-58
2023/12/16 05:24:32;;;;;;;20.43;10.80;;;;;;;3.62;100.00;147116.25;5024366;28;20240;-58
2023/12/16 05:26:58;;;;;;;22.77;10.83;;;;;;;3.67;100.00;147127.41;5020036;28;20702;-58
2023/12/16 05:29:25;;;;;;;21.07;10.43;;;;;;;3.71;100.00;147137.28;5021888;28;20311;-58
2023/12/16 05:31:51;;;;;;;20.83;10.43;;;;;;;3.78;100.00;147153.44;5022228;28;20237;-58
2023/12/16 05:34:19;;;;;;;20.50;11.37;;;;;;;3.81;100.00;147160.88;5022585;28;20224;-58
2023/12/16 05:36:47;;;;;;;22.13;11.80;;;;;;;3.83;100.00;147167.03;5024093;28;20220;-58
2023/12/16 05:39:14;;;;;;;19.77;10.67;;;;;;;3.88;100.00;147178.22;5014385;28;20227;-58
2023/12/16 05:41:40;;;;;;;20.30;11.13;;;;;;;3.95;100.00;147194.31;5024195;28;20235;-58
2023/12/16 05:44:07;;;;;;;19.37;10.73;;;;;;;4.04;100.00;147215.41;5021889;28;20230;-57
2023/12/16 05:46:33;;;;;;;21.97;10.57;;;;;;;4.11;100.00;147232.78;5024553;28;20246;-58
2023/12/16 05:49:00;;;;;;;19.80;11.57;;;;;;;4.13;100.00;147238.97;5025103;28;20225;-58
2023/12/16 05:51:28;;;;;;;22.70;12.17;;;;;;;4.20;100.00;147255.09;5022469;28;21329;-58
2023/12/16 05:53:54;;;;;;;20.57;11.80;;;;;;;4.24;100.00;147264.97;5024318;28;20234;-58
2023/12/16 05:56:21;;;;;;;22.83;10.87;;;;;;;4.33;100.00;147284.81;5015377;28;20874;-57
2023/12/16 05:58:48;;;;;;;22.50;10.97;;;;;;;4.39;100.00;147300.97;5023589;28;20740;-58
2023/12/16 06:01:19;;;;;;;20.93;10.73;;;;;;;4.46;100.00;147315.84;5020040;28;20240;-58
2023/12/16 06:03:46;;;;;;;22.53;10.97;;;;;;;4.52;100.00;147331.94;5024309;28;20226;-58
2023/12/16 06:06:13;;;;;;;17.17;10.70;;;;;;;4.51;100.00;147329.47;5021214;28;20732;-58
2023/12/16 06:08:41;;;;;;;19.53;10.83;;;;;;;4.54;100.00;147336.91;5024173;28;20262;-57
2023/12/16 06:11:11;;;;;;;15.60;10.90;;;;;;;4.56;100.00;147341.88;5021127;28;20220;-58
2023/12/16 06:13:39;;;;;;;21.47;12.07;;;;;;;4.58;100.00;147345.63;5023996;28;20226;-57
2023/12/16 06:16:07;;;;;;;18.80;10.60;;;;;;;4.62;100.00;147354.28;5013745;28;20560;-58
2023/12/16 06:18:33;;;;;;;16.53;9.63;;;;;;;4.63;100.00;147356.75;5016331;28;20242;-58
2023/12/16 06:21:00;;;;;;;17.23;10.10;;;;;;;4.67;100.00;147366.69;5025530;28;20227;-58
2023/12/16 06:23:27;;;;;;;22.90;11.00;;;;;;;4.67;100.00;147366.69;5025817;28;20223;-59
2023/12/16 06:25:55;;;;;;;18.40;10.37;;;;;;;4.67;100.00;147366.69;5028026;28;20227;-59
2023/12/16 06:28:22;;;;;;;20.03;10.50;;;;;;;4.68;100.00;147370.44;5025881;28;20229;-59
2023/12/16 06:30:48;;;;;;;17.17;9.77;;;;;;;4.66;100.00;147365.47;5028383;28;20235;-58
2023/12/16 06:33:15;;;;;;;16.80;9.33;;;;;;;4.75;100.00;147386.53;5023918;28;20211;-59
2023/12/16 06:35:41;;;;;;;16.37;10.40;;;;;;;4.70;100.00;147375.38;5027716;28;20721;-59
2023/12/16 06:38:08;;;;;;;21.40;9.87;;;;;;;4.72;100.00;147380.34;5025050;28;20761;-58
2023/12/16 06:40:35;;;;;;;21.67;10.77;;;;;;;4.75;100.00;147386.53;5012425;28;20219;-59
2023/12/16 06:43:02;;;;;;;19.93;10.07;;;;;;;4.77;100.00;147390.28;5026619;28;20236;-58
2023/12/16 06:45:29;;;;;;;17.80;9.80;;;;;;;4.76;100.00;147389.00;5025740;28;20326;-58
2023/12/16 06:47:56;;;;;;;17.93;10.00;;;;;;;4.77;100.00;147390.28;5027405;28;20248;-59
2023/12/16 06:50:23;;;;;;;14.67;8.67;;;;;;;4.77;100.00;147390.28;5024381;28;20227;-58
2023/12/16 06:52:49;;;;;;;19.30;9.63;;;;;;;4.81;100.00;147400.16;5025037;28;20247;-58
2023/12/16 06:55:16;;;;;;;20.43;9.60;;;;;;;4.84;100.00;147407.59;5024954;28;20215;-57
2023/12/16 06:57:43;;;;;;;20.50;10.00;;;;;;;4.85;100.00;147411.34;5027280;28;20654;-58
2023/12/16 07:00:12;;;;;;;17.50;9.20;;;;;;;4.88;100.00;147418.78;5025292;28;20220;-58
2023/12/16 07:02:41;;;;;;;17.00;9.43;;;;;;;4.87;100.00;147415.03;5026325;28;20586;-58
2023/12/16 07:05:08;;;;;;;15.10;8.73;;;;;;;4.91;100.00;147424.97;5024643;28;20728;-58
2023/12/16 07:07:35;;;;;;;15.83;8.40;;;;;;;4.93;100.00;147429.94;5026683;28;20234;-58
2023/12/16 07:10:02;;;;;;;17.43;8.83;;;;;;;4.93;100.00;147428.72;5027794;28;20595;-58
2023/12/16 07:12:28;;;;;;;16.87;8.70;;;;;;;4.94;100.00;147432.41;5024674;28;20232;-58
2023/12/16 07:14:55;;;;;;;17.13;8.40;;;;;;;4.98;100.00;147441.13;5027546;28;20239;-58
2023/12/16 07:17:23;;;;;;;13.33;8.33;;;;;;;4.96;100.00;147437.38;5024921;28;20230;-58
2023/12/16 07:19:50;;;;;;;18.17;9.07;;;;;;;4.96;100.00;147436.16;5027542;28;20858;-59
2023/12/16 07:22:17;;;;;;;15.67;8.33;;;;;;;4.97;100.00;147439.84;5024505;28;20768;-58
2023/12/16 07:24:45;;;;;;;14.07;8.13;;;;;;;4.98;100.00;147441.13;5026635;28;20590;-59
2023/12/16 07:27:12;;;;;;;15.90;8.63;;;;;;;5.02;100.00;147452.25;5024471;28;20240;-58
2023/12/16 07:29:38;;;;;;;17.60;8.73;;;;;;;5.05;100.00;147458.50;5025654;28;20255;-58
2023/12/16 07:32:05;;;;;;;14.30;8.60;;;;;;;5.04;100.00;147456.00;5024510;28;20220;-58
2023/12/16 07:34:33;;;;;;;14.30;7.93;;;;;;;4.99;100.00;147444.81;5022969;28;20637;-58
2023/12/16 07:37:00;;;;;;;13.63;8.07;;;;;;;5.00;100.00;147447.31;5025747;28;20226;-57
2023/12/16 07:39:26;;;;;;;15.37;8.23;;;;;;;5.01;100.00;147448.56;5024264;28;20594;-59
2023/12/16 07:41:53;;;;;;;15.77;8.60;;;;;;;5.03;100.00;147454.75;5026575;28;20235;-59
2023/12/16 07:44:19;;;;;;;16.10;7.50;;;;;;;5.09;100.00;147467.16;5024011;28;21274;-58
2023/12/16 07:46:46;;;;;;;17.17;8.27;;;;;;;5.10;100.00;147470.91;5025438;28;20231;-56
2023/12/16 07:49:13;;;;;;;12.07;7.50;;;;;;;5.13;100.00;147477.09;5024413;28;20230;-58
2023/12/16 07:51:41;;;;;;;13.73;7.63;;;;;;;5.13;100.00;147478.34;5026779;28;20239;-59
2023/12/16 07:54:07;;;;;;;11.90;6.80;;;;;;;5.17;100.00;147487.00;5023897;28;20219;-58
2023/12/16 07:56:34;;;;;;;11.03;6.50;;;;;;;5.19;100.00;147491.97;5026860;28;20285;-58
2023/12/16 07:59:01;;;;;;;12.70;7.53;;;;;;;5.23;100.00;147501.91;5026474;28;20223;-58
2023/12/16 08:01:27;;;;;;;17.30;8.40;;;;;;;5.28;100.00;147513.09;5015783;28;20771;-57
2023/12/16 08:03:54;;;;;;;16.03;8.00;;;;;;;5.34;100.00;147527.94;5026815;28;20235;-58
2023/12/16 08:06:20;;;;;;;16.83;8.00;;;;;;;5.36;100.00;147531.69;5023780;28;20236;-58
2023/12/16 08:08:48;;;;;;;14.07;8.07;;;;;;;5.40;100.00;147542.84;5026623;28;20227;-58
2023/12/16 08:11:15;;;;;;;17.00;9.27;;;;;;;5.47;100.00;147559.00;5023191;28;20246;-57
2023/12/16 08:13:42;;;;;;;15.03;9.03;;;;;;;5.49;100.00;147562.69;5024575;28;20232;-59
2023/12/16 08:16:11;;;;;;;19.07;11.60;;;;;;;5.52;100.00;147571.41;5020683;28;20246;-59
2023/12/16 08:18:38;;;;;;;15.43;9.33;;;;;;;5.59;100.00;147587.53;4997010;28;20243;-57
2023/12/16 08:21:05;;;;;;;14.83;8.80;;;;;;;5.56;100.00;147581.34;5018846;28;20247;-58
2023/12/16 08:23:32;;;;;;;21.40;9.40;;;;;;;5.61;100.00;147592.47;5012592;28;20263;-57
2023/12/16 08:25:59;;;;;;;14.17;9.30;;;;;;;5.63;100.00;147596.22;5021691;28;20220;-58
2023/12/16 08:28:26;;;;;;;16.30;9.90;;;;;;;5.66;100.00;147604.91;5021679;28;20239;-57
2023/12/16 08:30:53;;;;;;;14.63;8.43;;;;;;;5.74;100.00;147623.53;5020245;28;20224;-57
2023/12/16 08:33:20;;;;;;;16.67;9.17;;;;;;;5.81;100.00;147640.94;5022504;28;20227;-58
2023/12/16 08:35:47;;;;;;;14.13;8.33;;;;;;;5.89;100.00;147659.53;5025935;28;20234;-57
2023/12/16 08:38:13;;;;;;;15.63;8.13;;;;;;;5.91;100.00;147665.72;5023642;28;20227;-58
2023/12/16 08:40:40;;;;;;;16.43;8.47;;;;;;;5.97;100.00;147679.38;5021180;28;20266;-58
2023/12/16 08:43:08;;;;;;;17.80;8.10;;;;;;;5.97;100.00;147678.13;5019892;28;20692;-57
2023/12/16 08:45:34;;;;;;;14.87;9.07;;;;;;;5.95;100.00;147674.44;5025453;28;20228;-57
2023/12/16 08:48:01;;;;;;;451.20;194.80;;;;;;;5.97;100.00;147679.38;5025212;28;20232;-58
2023/12/16 08:50:28;;;;;;;43.80;21.97;;;;;;;6.01;100.00;147689.38;5023035;28;20239;-57
2023/12/16 08:52:54;;;;;;;28.57;15.37;;;;;;;6.05;100.00;147699.31;5025321;28;20749;-57
2023/12/16 08:55:23;;;;;;;34.23;17.67;;;;;;;6.14;100.00;147720.38;5022634;28;20224;-57
2023/12/16 08:57:49;;;;;;;23.67;12.07;;;;;;;6.26;100.00;147747.72;5024540;28;20587;-57
2023/12/16 09:00:18;;;;;;;18.93;9.40;;;;;;;6.30;100.00;147758.91;5022820;28;20226;-57
2023/12/16 09:02:44;;;;;;;19.67;10.63;;;;;;;6.31;100.00;147761.41;5024168;28;20240;-57
2023/12/16 09:05:11;;;;;;;18.70;10.97;;;;;;;6.32;100.00;147763.88;5020775;28;20312;-57
2023/12/16 09:07:38;;;;;;;15.50;9.67;;;;;;;6.40;100.00;147782.47;5024969;28;20262;-58
2023/12/16 09:10:05;;;;;;;15.57;9.23;;;;;;;6.48;100.00;147801.09;5024923;28;20223;-58
2023/12/16 09:12:32;;;;;;;13.73;8.33;;;;;;;6.53;100.00;147813.50;5021473;28;20327;-58
2023/12/16 09:14:58;;;;;;;17.10;8.43;;;;;;;6.55;100.00;147818.47;5024367;28;20212;-58
2023/12/16 09:17:26;;;;;;;17.27;9.57;;;;;;;6.65;100.00;147842.09;5021589;28;20228;-58
2023/12/16 09:19:53;;;;;;;16.73;9.97;;;;;;;6.65;100.00;147842.09;5025050;28;20228;-58
2023/12/16 09:22:21;;;;;;;17.60;9.77;;;;;;;6.62;100.00;147834.66;5021685;28;20221;-57
2023/12/16 09:24:48;;;;;;;19.03;9.50;;;;;;;6.69;100.00;147850.78;5012377;28;20227;-57
2023/12/16 09:27:14;;;;;;;19.50;10.43;;;;;;;6.76;100.00;147869.44;5017331;28;20239;-58
2023/12/16 09:29:41;;;;;;;19.20;12.33;;;;;;;6.72;100.00;147859.50;5024793;28;20232;-57
2023/12/16 09:32:08;;;;;;;23.90;13.07;;;;;;;6.78;100.00;147873.13;5021142;28;20216;-58
2023/12/16 09:34:36;;;;;;;22.10;12.77;;;;;;;6.84;100.00;147886.84;5024514;28;20239;-58
2023/12/16 09:37:02;;;;;;;21.17;12.40;;;;;;;6.89;100.00;147900.47;5023838;28;20252;-58
2023/12/16 09:39:29;;;;;;;22.63;13.93;;;;;;;6.88;100.00;147896.78;5021993;28;20229;-55
2023/12/16 09:41:57;;;;;;;27.00;16.63;;;;;;;6.87;100.00;147895.50;5024635;28;20239;-58
2023/12/16 09:44:25;;;;;;;24.43;14.53;;;;;;;6.94;100.00;147911.63;5020165;28;20213;-58
2023/12/16 09:46:53;;;;;;;26.27;14.13;;;;;;;6.91;100.00;147905.44;5018881;28;20239;-57
2023/12/16 09:49:21;;;;;;;29.03;16.07;;;;;;;6.92;100.00;147906.66;5022176;28;20232;-57
2023/12/16 09:51:49;;;;;;;35.77;16.73;;;;;;;6.87;100.00;147895.50;5023984;28;20239;-58
2023/12/16 09:54:16;;;;;;;26.57;13.93;;;;;;;6.84;100.00;147886.84;5021241;28;20623;-58
2023/12/16 09:56:44;;;;;;;21.20;12.77;;;;;;;6.94;100.00;147911.63;5023797;28;20225;-58
2023/12/16 09:59:13;;;;;;;18.73;11.87;;;;;;;7.00;100.00;147926.53;5022225;28;20224;-56
2023/12/16 10:01:40;;;;;;;21.30;12.80;;;;;;;7.01;100.00;147927.81;5024257;28;20228;-58
2023/12/16 10:04:08;;;;;;;20.27;12.63;;;;;;;6.97;100.00;147919.09;5023323;28;20227;-58
2023/12/16 10:06:35;;;;;;;18.87;12.30;;;;;;;7.02;100.00;147930.28;5022422;28;20225;-58
2023/12/16 10:09:04;;;;;;;28.10;16.17;;;;;;;7.15;100.00;147962.59;5024691;28;20778;-58
2023/12/16 10:11:38;;;;;;;23.80;13.40;;;;;;;7.20;100.00;147973.78;5022298;28;20242;-56
2023/12/16 10:14:05;;;;;;;17.40;11.73;;;;;;;7.27;100.00;147989.94;5023554;28;20228;-57
2023/12/16 10:16:32;;;;;;;19.67;12.60;;;;;;;7.28;100.00;147992.44;5021760;28;20239;-58
2023/12/16 10:18:59;;;;;;;20.10;11.53;;;;;;;7.26;100.00;147987.47;5024360;28;20718;-56
2023/12/16 10:21:27;;;;;;;16.80;11.13;;;;;;;7.39;100.00;148021.00;5020508;28;20278;-58
2023/12/16 10:23:56;;;;;;;21.40;12.30;;;;;;;7.35;100.00;148009.81;5023344;28;20235;-58
2023/12/16 10:26:24;;;;;;;20.37;11.60;;;;;;;7.31;100.00;148001.09;5010915;28;20233;-58
2023/12/16 10:28:53;;;;;;;20.80;11.67;;;;;;;7.30;100.00;147998.63;5010631;28;20598;-57
2023/12/16 10:31:21;;;;;;;19.93;13.00;;;;;;;7.31;100.00;147999.88;5020941;28;21016;-58
2023/12/16 10:33:48;;;;;;;25.77;12.63;;;;;;;7.30;100.00;147998.63;5023878;28;20235;-57
2023/12/16 10:36:15;;;;;;;20.47;12.93;;;;;;;7.44;100.00;148030.94;5020989;28;20295;-58
2023/12/16 10:38:42;;;;;;;20.97;12.70;;;;;;;7.59;100.00;148068.22;5024440;28;20627;-58
2023/12/16 10:41:09;;;;;;;17.53;11.50;;;;;;;7.67;100.00;148088.13;5021625;28;20565;-58
2023/12/16 10:43:38;;;;;;;26.00;16.07;;;;;;;7.59;100.00;148068.22;5023663;28;20317;-58
2023/12/16 10:46:06;;;;;;;20.40;12.40;;;;;;;7.64;100.00;148079.38;5024217;28;20306;-57
2023/12/16 10:48:34;;;;;;;19.77;11.57;;;;;;;7.76;100.00;148108.00;5020671;28;20688;-55
2023/12/16 10:51:02;;;;;;;24.00;14.10;;;;;;;7.66;100.00;148084.38;5016083;28;20220;-57
2023/12/16 10:53:38;;;;;;;21.53;11.77;;;;;;;7.81;100.00;148120.44;5018242;28;20235;-57
2023/12/16 10:56:16;;;;;;;19.43;11.50;;;;;;;7.73;100.00;148100.56;5024345;28;20223;-56
2023/12/16 10:58:52;;;;;;;23.33;12.20;;;;;;;7.85;100.00;148130.38;5020561;28;20243;-58
2023/12/16 11:01:21;;;;;;;18.83;11.27;;;;;;;7.78;100.00;148112.97;5021405;28;20219;-57
2023/12/16 11:03:53;;;;;;;17.97;11.00;;;;;;;7.72;100.00;148098.06;5022750;28;20712;-57
2023/12/16 11:06:29;;;;;;;17.37;11.63;;;;;;;7.77;100.00;148111.72;5021350;28;20303;-58
2023/12/16 11:08:57;;;;;;;19.17;11.33;;;;;;;7.85;100.00;148130.38;5018960;28;20236;-58
2023/12/16 11:11:24;;;;;;;17.97;11.53;;;;;;;7.80;100.00;148117.97;5023446;28;20245;-58
2023/12/16 11:13:55;;;;;;;20.23;11.57;;;;;;;7.75;100.00;148105.53;5027133;28;20217;-58
2023/12/16 11:16:31;;;;;;;18.50;11.20;;;;;;;7.58;100.00;148064.47;5024616;28;20229;-58